Time;durP1;ratioP1;P1;durP2;ratioP2;P2;SDS_P1;SDS_P2;PMS_P1;PMS_P2;Temp;Humidity;BMP_temperature;BMP_pressure;BME280_temperature;BME280_humidity;BME280_pressure;Samples;Min_cycle;Max_cycle;Signal;HPM_P1;HPM_P2
2023/10/12 00:01:39;;;;;;;6.85;4.18;;;;;;;10.34;100.00;63064.28;5071664;28;20256;-79
2023/10/12 00:04:12;;;;;;;3.42;3.13;;;;;;;10.34;100.00;63064.28;5068028;28;20572;-78
2023/10/12 00:06:43;;;;;;;10.98;3.17;;;;;;;10.31;100.00;63063.72;5051342;28;20218;-78
2023/10/12 00:09:17;;;;;;;3.70;3.40;;;;;;;10.23;100.00;63053.41;5055080;28;20205;-79
2023/10/12 00:11:46;;;;;;;3.15;2.88;;;;;;;10.19;100.00;63051.84;5049294;28;20198;-79
2023/10/12 00:14:14;;;;;;;3.30;3.03;;;;;;;10.14;100.00;63046.66;5050633;28;20263;-79
2023/10/12 00:16:43;;;;;;;3.60;3.30;;;;;;;10.14;100.00;63044.13;5051354;28;20233;-78
2023/10/12 00:19:12;;;;;;;3.85;3.47;;;;;;;10.15;100.00;63044.63;5052053;28;20226;-77
2023/10/12 00:21:43;;;;;;;5.70;3.40;;;;;;;10.08;100.00;63037.34;5054206;28;20198;-78
2023/10/12 00:24:12;;;;;;;3.58;3.28;;;;;;;10.00;100.00;63029.09;5067101;28;20209;-79
2023/10/12 00:26:42;;;;;;;5.10;3.78;;;;;;;9.85;100.00;63014.09;5068064;28;20394;-80
2023/10/12 00:29:09;;;;;;;3.67;3.38;;;;;;;9.83;100.00;63014.06;5070228;28;20251;-78
2023/10/12 00:31:38;;;;;;;5.53;3.75;;;;;;;9.81;100.00;63007.41;5063189;28;20215;-79
2023/10/12 00:34:08;;;;;;;3.95;3.65;;;;;;;9.81;100.00;63009.97;5069113;28;20190;-79
2023/10/12 00:36:37;;;;;;;5.70;3.72;;;;;;;9.81;100.00;63011.97;5054037;28;20201;-79
2023/10/12 00:39:09;;;;;;;7.32;4.15;;;;;;;9.79;100.00;63012.44;5067721;28;20244;-78
2023/10/12 00:41:37;;;;;;;3.88;3.58;;;;;;;9.81;100.00;63006.91;5067796;28;20490;-78
2023/10/12 00:44:10;;;;;;;4.65;3.38;;;;;;;9.80;100.00;63006.38;5064092;28;20206;-79
2023/10/12 00:46:58;;;;;;;4.70;4.22;;;;;;;9.79;100.00;63009.91;5051121;28;20265;-78
2023/10/12 00:49:30;;;;;;;4.97;3.75;;;;;;;9.76;100.00;63004.25;5052025;28;20278;-79
2023/10/12 00:52:08;;;;;;;3.72;3.30;;;;;;;9.76;100.00;63004.25;5052970;28;20201;-77
2023/10/12 00:54:49;;;;;;;3.67;3.45;;;;;;;9.76;100.00;63007.34;5065571;28;20287;-78
2023/10/12 00:57:16;;;;;;;3.90;3.60;;;;;;;9.74;100.00;63010.34;5070838;28;20193;-77
2023/10/12 00:59:46;;;;;;;7.53;3.83;;;;;;;9.65;100.00;62995.41;5069996;28;20240;-79
2023/10/12 01:02:16;;;;;;;3.55;3.25;;;;;;;9.66;100.00;62996.47;5052079;28;20210;-78
2023/10/12 01:04:44;;;;;;;4.03;3.65;;;;;;;9.66;100.00;62996.47;5050996;28;20224;-78
2023/10/12 01:07:19;;;;;;;5.72;3.63;;;;;;;9.65;100.00;62990.88;5055683;28;20190;-79
2023/10/12 01:09:48;;;;;;;5.15;3.47;;;;;;;9.62;100.00;62987.75;5069596;28;20243;-78
2023/10/12 01:12:17;;;;;;;4.38;3.67;;;;;;;9.53;100.00;62983.53;5054606;28;20297;-79
2023/10/12 01:14:47;;;;;;;4.28;3.90;;;;;;;9.52;100.00;62979.44;5050435;28;20225;-78
2023/10/12 01:17:23;;;;;;;4.65;3.95;;;;;;;9.48;100.00;62975.81;5061802;28;20200;-79
2023/10/12 01:19:51;;;;;;;4.07;3.65;;;;;;;9.43;100.00;62968.13;5066975;28;20243;-78
2023/10/12 01:22:27;;;;;;;3.58;3.38;;;;;;;9.39;100.00;62966.50;5063554;28;20550;-77
2023/10/12 01:25:00;;;;;;;4.15;3.47;;;;;;;9.28;100.00;62952.63;5049424;28;20264;-78
2023/10/12 01:27:27;;;;;;;4.30;3.90;;;;;;;9.36;100.00;62963.41;5048056;28;20487;-79
2023/10/12 01:29:58;;;;;;;5.93;3.95;;;;;;;9.32;100.00;62959.81;5048885;28;20610;-79
2023/10/12 01:32:29;;;;;;;4.35;4.05;;;;;;;9.33;100.00;62960.31;5055246;28;20383;-79
2023/10/12 01:35:04;;;;;;;4.85;4.35;;;;;;;9.29;100.00;62948.56;5049982;28;20340;-80
2023/10/12 01:37:47;;;;;;;6.60;4.72;;;;;;;9.24;100.00;62948.47;5049453;28;20209;-79
2023/10/12 01:40:18;;;;;;;4.40;4.00;;;;;;;9.24;100.00;62949.00;5070605;28;20229;-79
2023/10/12 01:42:50;;;;;;;4.07;3.67;;;;;;;9.23;100.00;62947.44;5069449;28;20205;-79
2023/10/12 01:45:18;;;;;;;4.70;4.30;;;;;;;9.21;100.00;62945.38;5068769;28;20217;-79
2023/10/12 01:47:51;;;;;;;5.10;4.70;;;;;;;9.18;100.00;62944.81;5050482;28;20206;-79
2023/10/12 01:50:19;;;;;;;7.03;3.85;;;;;;;9.17;100.00;62946.31;5049087;28;20442;-79
2023/10/12 01:52:52;;;;;;;5.32;3.85;;;;;;;9.17;100.00;62946.84;5048151;28;20502;-80
2023/10/12 01:55:28;;;;;;;4.15;3.78;;;;;;;9.14;100.00;62946.28;5048355;28;20218;-79
2023/10/12 01:57:56;;;;;;;4.93;4.53;;;;;;;9.09;100.00;62933.47;5064991;28;20422;-78
2023/10/12 02:00:26;;;;;;;6.88;4.22;;;;;;;9.04;100.00;62927.81;5069904;28;20271;-79
2023/10/12 02:03:00;;;;;;;4.22;3.92;;;;;;;9.01;100.00;62930.28;5067513;28;20236;-79
2023/10/12 02:05:30;;;;;;;4.57;4.13;;;;;;;9.07;100.00;62935.97;5066315;28;20259;-79
2023/10/12 02:08:05;;;;;;;4.55;4.15;;;;;;;9.10;100.00;62939.06;5064422;28;20244;-79
2023/10/12 02:10:41;;;;;;;6.30;4.38;;;;;;;9.08;100.00;62931.94;5048488;28;20227;-78
2023/10/12 02:13:10;;;;;;;3.95;3.75;;;;;;;9.07;100.00;62931.44;5047524;28;20198;-78
2023/10/12 02:15:38;;;;;;;4.90;4.50;;;;;;;9.09;100.00;62935.50;5064297;28;20364;-78
2023/10/12 02:18:15;;;;;;;4.47;4.07;;;;;;;9.00;100.00;62926.72;5054388;28;20269;-78
2023/10/12 02:20:59;;;;;;;5.30;4.82;;;;;;;9.07;100.00;62933.44;5056787;28;20262;-77
2023/10/12 02:23:32;;;;;;;3.90;3.60;;;;;;;9.10;100.00;62942.13;5063797;28;20201;-80
2023/10/12 02:26:07;;;;;;;4.38;3.97;;;;;;;9.10;100.00;62936.53;5068448;28;20213;-78
2023/10/12 02:28:37;;;;;;;4.78;4.10;;;;;;;9.07;100.00;62933.44;5067964;28;20209;-79
2023/10/12 02:31:05;;;;;;;4.70;4.30;;;;;;;9.04;100.00;62933.38;5069285;28;20225;-78
2023/10/12 02:33:37;;;;;;;6.13;4.35;;;;;;;8.97;100.00;62923.09;5061426;28;20202;-78
2023/10/12 02:36:09;;;;;;;4.30;4.00;;;;;;;8.89;100.00;62914.84;5067083;28;20315;-78
2023/10/12 02:38:41;;;;;;;5.45;4.93;;;;;;;8.69;100.00;62891.63;5060007;28;20234;-77
2023/10/12 02:41:12;;;;;;;5.05;4.50;;;;;;;8.76;100.00;62901.94;5048113;28;20213;-78
2023/10/12 02:43:43;;;;;;;9.35;5.40;;;;;;;8.79;100.00;62901.97;5048441;28;20194;-78
2023/10/12 02:46:22;;;;;;;5.20;4.72;;;;;;;8.82;100.00;62905.06;5048374;28;20266;-79
2023/10/12 02:48:50;;;;;;;6.40;5.05;;;;;;;8.81;100.00;62904.56;5058880;28;20220;-78
2023/10/12 02:51:18;;;;;;;7.15;4.95;;;;;;;8.74;100.00;62901.88;5047077;28;20224;-79
2023/10/12 02:53:47;;;;;;;5.93;5.00;;;;;;;8.74;100.00;62902.41;5056150;28;20271;-78
2023/10/12 02:56:21;;;;;;;6.90;5.30;;;;;;;8.72;100.00;62895.25;5068545;28;20213;-77
2023/10/12 02:58:49;;;;;;;6.18;4.50;;;;;;;8.73;100.00;62896.28;5065164;28;20240;-79
2023/10/12 03:01:19;;;;;;;4.72;4.32;;;;;;;8.72;100.00;62894.72;5060946;28;20241;-78
2023/10/12 03:03:49;;;;;;;4.65;4.35;;;;;;;8.67;100.00;62890.09;5047173;28;20190;-78
2023/10/12 03:06:23;;;;;;;5.07;4.68;;;;;;;8.60;100.00;62884.88;5053303;28;20308;-78
2023/10/12 03:09:14;;;;;;;4.85;4.35;;;;;;;8.62;100.00;62886.94;5057255;28;20216;-78
2023/10/12 03:11:42;;;;;;;8.35;4.72;;;;;;;8.59;100.00;62886.38;5052262;28;20212;-79
2023/10/12 03:14:16;;;;;;;5.72;5.22;;;;;;;8.58;100.00;62880.25;5052025;28;20214;-79
2023/10/12 03:16:44;;;;;;;6.07;5.57;;;;;;;8.57;100.00;62884.31;5051105;28;20248;-78
2023/10/12 03:19:24;;;;;;;6.43;4.50;;;;;;;8.52;100.00;62884.75;5066743;28;20252;-78
2023/10/12 03:22:03;;;;;;;5.63;5.13;;;;;;;8.51;100.00;62876.09;5067970;28;20455;-78
2023/10/12 03:24:44;;;;;;;8.88;5.75;;;;;;;8.51;100.00;62875.59;5051551;28;20222;-79
2023/10/12 03:27:13;;;;;;;5.95;4.63;;;;;;;8.47;100.00;62871.97;5069946;28;20212;-78
2023/10/12 03:29:51;;;;;;;6.55;5.43;;;;;;;8.45;100.00;62866.84;5073025;28;20228;-79
2023/10/12 03:32:23;;;;;;;5.88;5.38;;;;;;;8.49;100.00;62870.97;5065208;28;20208;-78
2023/10/12 03:34:54;;;;;;;7.22;5.75;;;;;;;8.48;100.00;62873.00;5070338;28;20225;-79
2023/10/12 03:37:40;;;;;;;7.05;5.30;;;;;;;8.48;100.00;62873.00;5060371;28;20367;-79
2023/10/12 03:42:56;;;;;;;6.07;5.47;;;;;;;8.45;100.00;62872.44;5051666;28;20261;-78
2023/10/12 03:45:33;;;;;;;8.43;4.65;;;;;;;8.43;100.00;62865.28;5058779;28;20270;-79
2023/10/12 03:50:58;;;;;;;5.45;4.90;;;;;;;8.49;100.00;62873.50;5052182;28;20288;-79
2023/10/12 03:53:41;;;;;;;7.70;4.72;;;;;;;8.47;100.00;62873.97;5064549;28;20219;-78
2023/10/12 03:56:14;;;;;;;5.00;4.50;;;;;;;8.49;100.00;62876.06;5051431;28;20218;-78
2023/10/12 03:58:47;;;;;;;8.07;4.85;;;;;;;8.47;100.00;62871.97;5052170;28;20214;-78
2023/10/12 04:01:23;;;;;;;7.10;5.10;;;;;;;8.42;100.00;62864.25;5061770;28;20210;-78
2023/10/12 04:04:08;;;;;;;5.70;4.75;;;;;;;8.44;100.00;62868.34;5050578;28;20269;-78
2023/10/12 04:06:55;;;;;;;8.07;6.40;;;;;;;8.43;100.00;62867.81;5051134;28;20278;-78
2023/10/12 04:09:31;;;;;;;6.60;6.00;;;;;;;8.39;100.00;62860.66;5051144;28;20216;-79
2023/10/12 04:12:11;;;;;;;7.25;6.22;;;;;;;8.38;100.00;62862.66;5052172;28;20201;-79
2023/10/12 04:14:46;;;;;;;6.72;6.00;;;;;;;8.40;100.00;62864.22;5051495;28;20563;-79
2023/10/12 04:17:39;;;;;;;6.90;6.20;;;;;;;8.39;100.00;62860.66;5064930;28;20239;-78
2023/10/12 04:20:17;;;;;;;5.35;4.85;;;;;;;8.39;100.00;62860.66;5053855;28;20275;-77
2023/10/12 04:25:32;;;;;;;5.22;4.70;;;;;;;8.38;100.00;62857.59;5066886;28;20213;-78
2023/10/12 04:28:16;;;;;;;5.20;4.75;;;;;;;8.37;100.00;62859.09;5053160;28;20495;-78
2023/10/12 04:31:20;;;;;;;5.63;4.97;;;;;;;8.34;100.00;62853.44;5051206;28;20296;-78
2023/10/12 04:33:40;;;;;;;5.97;5.00;;;;;;;8.33;100.00;62854.97;5063096;28;20229;-81
2023/10/12 04:36:24;;;;;;;5.40;4.90;;;;;;;8.33;100.00;62854.44;5069386;28;20233;-78
2023/10/12 04:39:02;;;;;;;7.85;5.25;;;;;;;8.34;100.00;62855.47;5067028;28;20344;-78
2023/10/12 04:41:39;;;;;;;4.93;4.53;;;;;;;8.25;100.00;62846.69;5068712;28;20203;-78
2023/10/12 04:44:35;;;;;;;7.35;4.95;;;;;;;8.12;100.00;62830.72;5071278;28;20260;-79
2023/10/12 04:47:05;;;;;;;8.40;5.65;;;;;;;8.14;100.00;62835.31;5057477;28;20213;-78
2023/10/12 04:49:55;;;;;;;7.20;6.43;;;;;;;8.16;100.00;62839.94;5049556;28;20332;-78
2023/10/12 04:52:32;;;;;;;6.10;5.47;;;;;;;8.15;100.00;62838.88;5048578;28;20221;-79
2023/10/12 04:57:43;;;;;;;6.53;5.47;;;;;;;8.12;100.00;62833.25;5070133;28;20260;-78
2023/10/12 05:00:24;;;;;;;10.05;6.05;;;;;;;8.16;100.00;62840.44;5067573;28;20460;-78
2023/10/12 05:08:21;;;;;;;6.35;5.75;;;;;;;8.28;100.00;62851.81;5060277;28;20205;-77
2023/10/12 05:10:48;;;;;;;6.15;5.53;;;;;;;8.37;100.00;62859.09;5067531;28;20263;-78
2023/10/12 05:13:21;;;;;;;9.23;5.63;;;;;;;8.45;100.00;62871.91;5068515;28;20204;-79
2023/10/12 05:18:33;;;;;;;9.18;7.15;;;;;;;8.58;100.00;62883.31;5060745;28;20205;-77
2023/10/12 05:21:04;;;;;;;8.50;7.60;;;;;;;8.70;100.00;62890.13;5070398;28;20300;-80
2023/10/12 05:23:31;;;;;;;7.40;6.80;;;;;;;8.77;100.00;62899.88;5065484;28;20212;-78
2023/10/12 05:26:10;;;;;;;11.02;6.35;;;;;;;8.81;100.00;62907.09;5069828;28;20463;-81
2023/10/12 05:28:55;;;;;;;7.65;6.85;;;;;;;8.93;100.00;62916.94;5067825;28;20223;-79
2023/10/12 05:31:28;;;;;;;7.78;7.07;;;;;;;9.06;100.00;62935.47;5058592;28;20294;-77
2023/10/12 05:36:48;;;;;;;10.52;8.43;;;;;;;9.39;100.00;62966.50;5030621;28;20298;-77
2023/10/12 05:39:16;;;;;;;11.65;7.97;;;;;;;9.52;100.00;62979.97;5068239;28;20233;-78
2023/10/12 05:41:47;;;;;;;11.35;7.07;;;;;;;9.51;100.00;62975.88;5050395;28;20202;-77
2023/10/12 05:44:15;;;;;;;13.95;7.97;;;;;;;9.47;100.00;62976.81;5048335;28;20198;-78
2023/10/12 05:46:51;;;;;;;10.40;8.32;;;;;;;9.44;100.00;62969.13;5049728;28;20201;-79
2023/10/12 05:49:23;;;;;;;13.60;8.95;;;;;;;9.46;100.00;62973.75;5047773;28;20217;-78
2023/10/12 05:51:50;;;;;;;21.38;8.77;;;;;;;9.64;100.00;62992.38;5049952;28;20233;-79
2023/10/12 05:54:20;;;;;;;22.67;8.95;;;;;;;9.60;100.00;62985.16;5061228;28;20213;-79
2023/10/12 05:56:49;;;;;;;12.35;8.60;;;;;;;9.76;100.00;63004.25;5049148;28;20257;-78
2023/10/12 05:59:18;;;;;;;12.88;10.10;;;;;;;9.81;100.00;63011.97;5048329;28;20193;-79
2023/10/12 06:01:48;;;;;;;10.43;8.60;;;;;;;9.60;100.00;62983.16;5052316;28;20209;-79
2023/10/12 06:04:16;;;;;;;11.98;9.23;;;;;;;9.54;100.00;62979.50;5065573;28;20197;-76
2023/10/12 06:06:44;;;;;;;12.02;8.68;;;;;;;9.49;100.00;62976.34;5068810;28;20501;-77
2023/10/12 06:09:13;;;;;;;11.85;8.68;;;;;;;9.61;100.00;62986.72;5065940;28;20429;-79
2023/10/12 06:11:44;;;;;;;13.80;9.70;;;;;;;9.69;100.00;62995.00;5068790;28;20247;-79
2023/10/12 06:14:14;;;;;;;14.50;8.73;;;;;;;9.77;100.00;63005.28;5049258;28;20205;-77
2023/10/12 06:16:42;;;;;;;12.50;9.02;;;;;;;9.86;100.00;63012.06;5049588;28;20209;-79
2023/10/12 06:19:21;;;;;;;16.92;9.73;;;;;;;10.05;100.00;63037.31;5058059;28;20258;-79
2023/10/12 06:21:51;;;;;;;13.60;9.85;;;;;;;10.17;100.00;63047.22;5050137;28;20202;-78
2023/10/12 06:24:21;;;;;;;11.55;8.95;;;;;;;10.27;100.00;63057.56;5066166;28;20423;-79
2023/10/12 06:26:49;;;;;;;13.57;9.48;;;;;;;10.39;100.00;63066.91;5051804;28;20272;-78
2023/10/12 06:29:25;;;;;;;12.32;8.90;;;;;;;10.41;100.00;63071.53;5049091;28;20213;-78
2023/10/12 06:31:54;;;;;;;14.93;9.40;;;;;;;10.62;100.00;63093.28;5058252;28;20205;-78
2023/10/12 06:34:24;;;;;;;17.70;9.77;;;;;;;10.52;100.00;63082.41;5067625;28;20233;-78
2023/10/12 06:36:57;;;;;;;12.43;8.55;;;;;;;10.59;100.00;63089.66;5069359;28;20193;-77
2023/10/12 06:42:26;;;;;;;17.65;9.05;;;;;;;10.76;100.00;63109.78;5052995;28;20371;-80
2023/10/12 06:44:53;;;;;;;16.52;9.63;;;;;;;10.93;100.00;63122.81;5050483;28;20218;-79
2023/10/12 06:47:41;;;;;;;27.67;10.93;;;;;;;10.91;100.00;63123.28;5068497;28;20272;-79
2023/10/12 06:50:16;;;;;;;12.95;8.80;;;;;;;11.05;100.00;63134.72;5054219;28;20242;-79
2023/10/12 06:52:43;;;;;;;16.15;9.70;;;;;;;11.06;100.00;63138.31;5067978;28;20193;-78
2023/10/12 06:55:21;;;;;;;17.80;9.45;;;;;;;11.05;100.00;63137.25;5049508;28;20258;-78
2023/10/12 06:57:54;;;;;;;15.40;9.05;;;;;;;11.17;100.00;63152.22;5053440;28;20228;-79
2023/10/12 07:03:12;;;;;;;16.27;9.35;;;;;;;11.49;100.00;63185.38;5045312;28;20228;-79
2023/10/12 07:05:39;;;;;;;13.00;8.98;;;;;;;11.64;100.00;63200.94;5054888;28;20420;-79
2023/10/12 07:08:15;;;;;;;12.20;8.73;;;;;;;11.65;100.00;63199.41;5063651;28;20195;-78
2023/10/12 07:10:54;;;;;;;15.52;9.25;;;;;;;11.68;100.00;63202.53;5049303;28;20218;-79
2023/10/12 07:13:25;;;;;;;20.90;8.70;;;;;;;11.76;100.00;63205.19;5048787;28;20224;-79
2023/10/12 07:15:53;;;;;;;14.13;8.13;;;;;;;11.87;100.00;63219.69;5051129;28;20294;-78
2023/10/12 07:18:22;;;;;;;13.75;8.60;;;;;;;12.00;100.00;63238.25;5056329;28;20213;-78
2023/10/12 07:20:51;;;;;;;18.48;9.32;;;;;;;12.22;100.00;63258.50;5068319;28;20252;-77
2023/10/12 07:23:28;;;;;;;15.40;8.98;;;;;;;12.35;100.00;63274.00;5066038;28;20205;-78
2023/10/12 07:26:00;;;;;;;15.57;8.55;;;;;;;12.32;100.00;63265.78;5057784;28;20243;-78
2023/10/12 07:28:32;;;;;;;20.60;9.77;;;;;;;12.28;100.00;63264.19;5069537;28;20228;-79
2023/10/12 07:33:59;;;;;;;16.83;8.10;;;;;;;12.51;100.00;63286.00;5046303;28;20213;-78
2023/10/12 07:36:52;;;;;;;16.13;8.40;;;;;;;12.65;100.00;63302.53;5057200;28;20194;-79
2023/10/12 07:39:26;;;;;;;16.10;8.40;;;;;;;12.79;100.00;63319.63;5049352;28;20202;-79
2023/10/12 07:41:57;;;;;;;10.77;8.65;;;;;;;12.82;98.05;63324.78;5050165;28;20234;-80
2023/10/12 07:44:27;;;;;;;20.10;8.18;;;;;;;12.95;97.97;63333.66;5058818;28;20214;-80
2023/10/12 07:46:56;;;;;;;11.68;7.57;;;;;;;13.15;96.72;63353.91;5062504;28;20208;-79
2023/10/12 07:49:27;;;;;;;14.45;8.15;;;;;;;13.31;94.79;63368.47;5060937;28;20244;-78
2023/10/12 07:52:05;;;;;;;16.80;8.60;;;;;;;13.21;93.48;63360.66;5056692;28;20244;-79
2023/10/12 07:57:13;;;;;;;11.93;8.23;;;;;;;13.27;94.46;63361.25;5054693;28;20206;-79
2023/10/12 07:59:49;;;;;;;16.85;8.77;;;;;;;13.44;93.74;63387.06;5060087;28;20534;-79
2023/10/12 08:02:15;;;;;;;13.95;7.68;;;;;;;13.60;90.53;63400.59;5068143;28;20344;-78
2023/10/12 08:04:57;;;;;;;12.23;6.82;;;;;;;13.54;90.16;63394.38;5066521;28;20221;-78
2023/10/12 08:07:27;;;;;;;10.52;6.70;;;;;;;13.67;88.69;63413.50;5069997;28;20201;-79
2023/10/12 08:10:08;;;;;;;15.50;7.32;;;;;;;13.75;87.90;63413.63;5062963;28;20281;-79
2023/10/12 08:12:36;;;;;;;20.75;7.53;;;;;;;13.83;87.01;63416.78;5057759;28;20198;-79
2023/10/12 08:15:09;;;;;;;11.75;6.95;;;;;;;13.96;87.46;63435.41;5059533;28;20230;-78
2023/10/12 08:17:39;;;;;;;10.23;7.05;;;;;;;14.00;88.21;63441.59;5058946;28;20205;-79
2023/10/12 08:23:01;;;;;;;8.52;6.00;;;;;;;14.33;84.01;63481.00;5062249;28;20387;-78
2023/10/12 08:25:37;;;;;;;7.82;6.10;;;;;;;14.53;81.78;63499.72;5056511;28;20256;-79
2023/10/12 08:28:19;;;;;;;8.10;6.25;;;;;;;14.60;80.59;63507.00;5062436;28;20194;-79
2023/10/12 08:31:00;;;;;;;10.68;6.30;;;;;;;14.67;81.51;63509.16;5063036;28;20236;-79
2023/10/12 08:36:29;;;;;;;8.90;6.63;;;;;;;14.58;80.42;63496.72;5057173;28;20247;-78
2023/10/12 08:38:57;;;;;;;14.13;7.50;;;;;;;14.64;79.77;63510.63;5058437;28;20224;-78
2023/10/12 08:41:46;;;;;;;12.63;8.05;;;;;;;14.73;80.00;63515.38;5053849;28;20237;-78
2023/10/12 08:44:19;;;;;;;18.55;7.72;;;;;;;14.88;79.57;63533.53;5054211;28;20194;-79
2023/10/12 08:46:56;;;;;;;10.10;6.75;;;;;;;14.97;78.42;63544.94;5055145;28;20206;-80
2023/10/12 08:49:41;;;;;;;11.48;7.20;;;;;;;15.19;77.79;63565.22;5055747;28;20225;-77
2023/10/12 08:52:18;;;;;;;10.38;7.38;;;;;;;15.27;75.86;63575.59;5054970;28;20189;-79
2023/10/12 08:54:52;;;;;;;11.52;6.90;;;;;;;15.47;75.21;63596.38;5061897;28;20221;-79
2023/10/12 08:57:34;;;;;;;11.43;6.95;;;;;;;15.58;74.17;63608.34;5060343;28;20221;-78
2023/10/12 09:00:24;;;;;;;10.07;6.10;;;;;;;15.49;73.92;63599.00;5055121;28;20540;-79
2023/10/12 09:02:58;;;;;;;10.07;6.50;;;;;;;15.78;73.06;63626.56;5055864;28;20276;-79
2023/10/12 09:05:28;;;;;;;14.43;6.68;;;;;;;15.95;71.43;63646.28;5058417;28;20215;-79
2023/10/12 09:08:24;;;;;;;11.35;7.30;;;;;;;16.03;71.31;63654.63;5052751;28;20257;-79
2023/10/12 09:11:02;;;;;;;7.05;6.35;;;;;;;16.09;68.76;63658.81;5051790;28;20232;-79
2023/10/12 09:13:31;;;;;;;15.65;7.32;;;;;;;16.18;69.86;63670.22;5062365;28;20260;-78
2023/10/12 09:16:00;;;;;;;9.10;6.80;;;;;;;16.07;68.08;63656.19;5061245;28;20217;-78
2023/10/12 09:18:29;;;;;;;13.95;6.65;;;;;;;16.32;69.37;63682.22;5055003;28;22985;-77
2023/10/12 09:21:15;;;;;;;13.23;6.22;;;;;;;16.59;68.35;63709.78;5056028;28;20236;-78
2023/10/12 09:23:46;;;;;;;10.13;6.07;;;;;;;16.54;66.64;63709.72;5064664;28;20201;-78
2023/10/12 09:26:19;;;;;;;14.35;6.22;;;;;;;16.71;66.29;63727.94;5055140;28;20213;-78
2023/10/12 09:29:04;;;;;;;12.93;6.70;;;;;;;16.83;67.82;63739.91;5061809;28;20193;-80
2023/10/12 09:34:43;;;;;;;7.38;5.65;;;;;;;17.39;63.51;63793.06;5043493;28;20224;-80
2023/10/12 09:37:16;;;;;;;13.35;6.60;;;;;;;17.50;62.42;63807.09;5055963;28;20204;-80
2023/10/12 09:39:46;;;;;;;13.55;6.43;;;;;;;17.58;61.42;63817.47;5057989;28;20210;-78
2023/10/12 09:42:28;;;;;;;7.30;5.95;;;;;;;17.54;60.73;63806.13;5053950;28;20394;-79
2023/10/12 09:45:01;;;;;;;8.82;6.13;;;;;;;17.68;60.33;63822.75;5053814;28;20221;-77
2023/10/12 09:47:43;;;;;;;6.43;5.88;;;;;;;17.66;59.25;63823.75;5052223;28;20235;-80
2023/10/12 09:50:14;;;;;;;8.57;5.78;;;;;;;17.80;58.91;63835.25;5056877;28;20217;-78
2023/10/12 09:52:47;;;;;;;8.38;6.00;;;;;;;17.81;58.24;63836.28;5056308;28;20223;-79
2023/10/12 09:55:25;;;;;;;9.60;5.75;;;;;;;17.74;58.44;63834.16;5057365;28;20288;-79
2023/10/12 09:57:56;;;;;;;8.23;6.18;;;;;;;17.68;57.45;63825.84;5053344;28;20208;-78
2023/10/12 10:00:53;;;;;;;7.60;6.22;;;;;;;17.70;57.20;63827.94;5056666;28;20232;-80
2023/10/12 10:03:19;;;;;;;13.52;6.00;;;;;;;17.65;58.31;63819.63;5055062;28;20208;-79
2023/10/12 10:05:55;;;;;;;10.93;5.90;;;;;;;17.47;58.02;63803.97;5051236;28;20245;-79
2023/10/12 10:08:29;;;;;;;12.32;5.95;;;;;;;17.41;59.60;63797.19;5058667;28;20201;-81
2023/10/12 10:10:58;;;;;;;9.52;6.45;;;;;;;17.50;58.49;63811.72;5057781;28;20225;-78
2023/10/12 10:13:46;;;;;;;12.00;6.00;;;;;;;17.65;58.96;63822.72;5045950;28;20208;-78
2023/10/12 10:16:15;;;;;;;9.93;5.63;;;;;;;17.84;58.14;63845.09;5051204;28;20225;-79
2023/10/12 10:18:56;;;;;;;8.32;5.63;;;;;;;18.10;57.86;63869.56;5054666;28;20209;-78
2023/10/12 10:21:30;;;;;;;6.05;4.72;;;;;;;18.35;56.33;63895.09;5053856;28;20293;-78
2023/10/12 10:23:59;;;;;;;8.30;6.15;;;;;;;18.28;56.09;63885.75;5053344;28;20256;-79
2023/10/12 10:26:31;;;;;;;8.15;5.70;;;;;;;18.37;57.19;63900.31;5051823;28;20216;-82
2023/10/12 10:29:05;;;;;;;9.18;5.78;;;;;;;18.53;55.00;63911.31;5050617;28;20400;-79
2023/10/12 10:31:41;;;;;;;14.55;5.20;;;;;;;18.63;54.15;63926.38;5054093;28;20247;-79
2023/10/12 10:34:12;;;;;;;6.10;4.82;;;;;;;18.75;54.25;63936.28;5052388;28;20200;-78
2023/10/12 10:36:40;;;;;;;8.65;5.80;;;;;;;18.81;52.37;63945.63;5055404;28;20243;-78
2023/10/12 10:39:28;;;;;;;9.43;5.32;;;;;;;18.86;52.40;63942.59;5055761;28;20197;-80
2023/10/12 10:42:00;;;;;;;4.70;4.35;;;;;;;19.02;52.45;63959.25;5051257;28;20224;-79
2023/10/12 10:44:29;;;;;;;10.98;4.95;;;;;;;19.13;51.94;63973.84;5055808;28;20216;-80
2023/10/12 10:47:00;;;;;;;4.90;4.50;;;;;;;19.32;52.44;63996.25;5050067;28;20205;-80
2023/10/12 10:49:30;;;;;;;6.78;4.18;;;;;;;19.20;51.67;63986.31;5054105;28;20546;-78
2023/10/12 10:52:13;;;;;;;4.95;4.20;;;;;;;19.24;51.31;63982.72;5052634;28;20201;-79
2023/10/12 10:54:56;;;;;;;4.90;4.47;;;;;;;19.46;51.95;64008.28;5056809;28;20239;-79
2023/10/12 10:57:31;;;;;;;6.55;4.10;;;;;;;19.69;51.51;64036.41;5052809;28;20208;-81
2023/10/12 11:00:00;;;;;;;9.85;4.60;;;;;;;19.65;49.58;64032.22;5054989;28;20231;-77
2023/10/12 11:02:28;;;;;;;7.38;3.72;;;;;;;19.68;50.44;64035.34;5053088;28;20225;-80
2023/10/12 11:04:59;;;;;;;4.68;4.18;;;;;;;19.88;51.34;64054.13;5053094;28;21216;-79
2023/10/12 11:07:27;;;;;;;4.90;4.03;;;;;;;20.10;51.36;64079.16;5053561;28;20223;-79
2023/10/12 11:10:08;;;;;;;7.43;4.38;;;;;;;20.23;49.88;64087.56;5052902;28;20228;-80
2023/10/12 11:12:36;;;;;;;7.55;4.25;;;;;;;20.29;49.07;64096.44;5048670;28;20220;-79
2023/10/12 11:15:11;;;;;;;4.63;3.58;;;;;;;20.42;49.39;64107.41;5060400;28;20307;-79
2023/10/12 11:17:49;;;;;;;6.70;3.38;;;;;;;20.60;47.98;64128.78;5059084;28;20531;-79
2023/10/12 11:20:36;;;;;;;5.35;3.90;;;;;;;20.66;48.07;64135.56;5059787;28;20236;-80
2023/10/12 11:23:07;;;;;;;4.22;3.92;;;;;;;20.79;46.87;64151.19;5049288;28;20498;-78
2023/10/12 11:25:39;;;;;;;4.00;3.45;;;;;;;20.67;47.39;64134.00;5062521;28;20238;-79
2023/10/12 11:28:23;;;;;;;8.02;3.80;;;;;;;20.50;47.01;64116.25;5067573;28;20273;-79
2023/10/12 11:31:01;;;;;;;8.35;3.33;;;;;;;20.40;48.23;64105.31;5056854;28;20270;-78
2023/10/12 11:33:29;;;;;;;5.57;4.20;;;;;;;20.53;48.26;64119.41;5071456;28;20207;-78
2023/10/12 11:36:00;;;;;;;5.60;4.32;;;;;;;20.71;47.13;64142.34;5071908;28;20213;-78
2023/10/12 11:38:28;;;;;;;4.22;3.60;;;;;;;20.71;46.69;64139.75;5060405;28;20216;-80
2023/10/12 11:40:56;;;;;;;4.50;3.92;;;;;;;20.88;47.38;64154.91;5058995;28;20236;-79
2023/10/12 11:43:29;;;;;;;4.18;3.88;;;;;;;20.87;45.51;64156.97;5055778;28;20406;-78
2023/10/12 11:46:03;;;;;;;9.68;4.13;;;;;;;20.76;46.72;64148.06;5056477;28;20216;-78
2023/10/12 11:48:31;;;;;;;5.20;3.42;;;;;;;20.75;46.01;64143.91;5058362;28;20267;-78
2023/10/12 11:50:59;;;;;;;4.32;3.92;;;;;;;20.84;47.01;64153.84;5056686;28;20308;-80
2023/10/12 11:53:28;;;;;;;3.80;3.22;;;;;;;20.90;47.28;64162.69;5057392;28;20192;-79
2023/10/12 11:56:07;;;;;;;4.50;4.10;;;;;;;20.89;45.68;64159.06;5057417;28;20217;-78
2023/10/12 11:58:35;;;;;;;11.35;3.95;;;;;;;20.54;46.39;64119.91;5054613;28;20212;-78
2023/10/12 12:01:08;;;;;;;5.55;4.03;;;;;;;20.40;46.69;64110.47;5067434;28;20258;-78
2023/10/12 12:03:39;;;;;;;6.45;4.55;;;;;;;20.45;47.26;64116.22;5070032;28;20204;-78
2023/10/12 12:06:10;;;;;;;8.65;3.55;;;;;;;20.59;47.28;64127.72;5065959;28;20255;-78
2023/10/12 12:08:40;;;;;;;4.45;3.22;;;;;;;20.57;47.12;64128.75;5060530;28;20261;-79
2023/10/12 12:11:09;;;;;;;3.47;3.28;;;;;;;20.64;46.24;64133.47;5059503;28;20288;-78
2023/10/12 12:13:47;;;;;;;6.53;4.07;;;;;;;20.69;46.36;64133.50;5060769;28;20254;-77
2023/10/12 12:16:20;;;;;;;4.30;3.35;;;;;;;20.76;47.52;64142.88;5057811;28;20252;-79
2023/10/12 12:18:50;;;;;;;7.22;3.83;;;;;;;20.81;48.63;64152.78;5050848;28;20205;-79
2023/10/12 12:21:18;;;;;;;6.20;3.65;;;;;;;20.78;46.75;64147.56;5049092;28;20235;-78
2023/10/12 12:23:48;;;;;;;9.25;4.82;;;;;;;20.84;46.79;64153.84;5061497;28;20283;-78
2023/10/12 12:26:18;;;;;;;5.40;3.90;;;;;;;20.79;46.08;64148.63;5058889;28;20239;-77
2023/10/12 12:28:45;;;;;;;4.60;3.42;;;;;;;20.85;46.81;64157.47;5051645;28;20208;-78
2023/10/12 12:31:15;;;;;;;10.88;4.30;;;;;;;21.01;47.73;64169.00;5055293;28;20292;-78
2023/10/12 12:33:44;;;;;;;4.68;3.55;;;;;;;21.11;45.60;64182.03;5058634;28;20271;-79
2023/10/12 12:36:12;;;;;;;4.22;3.58;;;;;;;21.19;46.36;64189.88;5065445;28;20242;-80
2023/10/12 12:38:52;;;;;;;6.72;3.30;;;;;;;21.33;45.41;64202.41;5051058;28;20204;-78
2023/10/12 12:41:23;;;;;;;4.80;3.42;;;;;;;21.46;45.75;64216.00;5063848;28;20231;-76